sensor_id;sensor_type;location;lat;lon;timestamp;pressure;altitude;pressure_sealevel;temperature;humidity
61908;BME280;47864;52.526;19.672;2023-04-01T00:00:00;98925.41;;;11.66;100.00
61908;BME280;47864;52.526;19.672;2023-04-01T00:02:02;98924.66;;;11.79;100.00
61908;BME280;47864;52.526;19.672;2023-04-01T00:04:04;98914.06;;;11.86;100.00
61908;BME280;47864;52.526;19.672;2023-04-01T00:06:06;98911.63;;;11.91;100.00
61908;BME280;47864;52.526;19.672;2023-04-01T00:08:07;98921.88;;;12.00;100.00
61908;BME280;47864;52.526;19.672;2023-04-01T00:10:12;98915.72;;;12.00;100.00
61908;BME280;47864;52.526;19.672;2023-04-01T00:12:14;98905.50;;;11.97;100.00
61908;BME280;47864;52.526;19.672;2023-04-01T00:14:15;98895.28;;;11.94;100.00
61908;BME280;47864;52.526;19.672;2023-04-01T00:16:17;98920.66;;;12.16;100.00
61908;BME280;47864;52.526;19.672;2023-04-01T00:18:23;98913.31;;;12.18;100.00
61908;BME280;47864;52.526;19.672;2023-04-01T00:20:25;98891.19;;;11.98;100.00
61908;BME280;47864;52.526;19.672;2023-04-01T00:22:26;98925.75;;;12.11;100.00
61908;BME280;47864;52.526;19.672;2023-04-01T00:24:28;98923.91;;;12.05;100.00
61908;BME280;47864;52.526;19.672;2023-04-01T00:26:30;98923.88;;;11.92;100.00
61908;BME280;47864;52.526;19.672;2023-04-01T00:28:33;98912.00;;;11.81;100.00
61908;BME280;47864;52.526;19.672;2023-04-01T00:30:35;98921.41;;;11.84;100.00
61908;BME280;47864;52.526;19.672;2023-04-01T00:32:37;98923.06;;;11.85;100.00
61908;BME280;47864;52.526;19.672;2023-04-01T00:34:39;98912.25;;;11.93;100.00
61908;BME280;47864;52.526;19.672;2023-04-01T00:36:40;98913.66;;;11.89;100.00
61908;BME280;47864;52.526;19.672;2023-04-01T00:38:42;98890.72;;;11.74;100.00
61908;BME280;47864;52.526;19.672;2023-04-01T00:40:45;98908.78;;;11.92;100.00
61908;BME280;47864;52.526;19.672;2023-04-01T00:42:47;98908.78;;;11.92;100.00
61908;BME280;47864;52.526;19.672;2023-04-01T00:44:53;98907.53;;;11.95;100.00
61908;BME280;47864;52.526;19.672;2023-04-01T00:46:56;98903.84;;;11.89;100.00
61908;BME280;47864;52.526;19.672;2023-04-01T00:48:58;98905.69;;;11.95;100.00
61908;BME280;47864;52.526;19.672;2023-04-01T00:53:05;98912.19;;;11.86;100.00
61908;BME280;47864;52.526;19.672;2023-04-01T00:55:10;98892.56;;;11.80;100.00
61908;BME280;47864;52.526;19.672;2023-04-01T00:57:17;98907.94;;;11.92;100.00
61908;BME280;47864;52.526;19.672;2023-04-01T00:59:23;98909.97;;;11.90;100.00
61908;BME280;47864;52.526;19.672;2023-04-01T01:01:25;98906.66;;;11.74;100.00
61908;BME280;47864;52.526;19.672;2023-04-01T01:03:28;98883.47;;;11.55;100.00
61908;BME280;47864;52.526;19.672;2023-04-01T01:05:43;98893.28;;;11.61;100.00
61908;BME280;47864;52.526;19.672;2023-04-01T01:08:06;98858.25;;;11.25;100.00
61908;BME280;47864;52.526;19.672;2023-04-01T01:10:17;98891.22;;;11.43;100.00
61908;BME280;47864;52.526;19.672;2023-04-01T01:12:40;98904.44;;;11.37;100.00
61908;BME280;47864;52.526;19.672;2023-04-01T01:16:55;98901.41;;;11.40;100.00
61908;BME280;47864;52.526;19.672;2023-04-01T01:19:11;98904.44;;;11.37;100.00
61908;BME280;47864;52.526;19.672;2023-04-01T01:21:39;98906.06;;;11.38;100.00
61908;BME280;47864;52.526;19.672;2023-04-01T01:28:47;98883.69;;;11.13;100.00
61908;BME280;47864;52.526;19.672;2023-04-01T01:31:03;98903.19;;;11.26;100.00
61908;BME280;47864;52.526;19.672;2023-04-01T01:36:02;98904.91;;;11.54;100.00
61908;BME280;47864;52.526;19.672;2023-04-01T01:38:09;98901.88;;;11.63;100.00
61908;BME280;47864;52.526;19.672;2023-04-01T01:40:13;98901.25;;;11.61;100.00
61908;BME280;47864;52.526;19.672;2023-04-01T01:42:18;98902.13;;;11.68;100.00
61908;BME280;47864;52.526;19.672;2023-04-01T01:44:20;98907.19;;;11.63;100.00
61908;BME280;47864;52.526;19.672;2023-04-01T01:46:24;98899.03;;;11.58;100.00
61908;BME280;47864;52.526;19.672;2023-04-01T01:48:28;98900.88;;;11.64;100.00
61908;BME280;47864;52.526;19.672;2023-04-01T01:50:31;98895.75;;;11.63;100.00
61908;BME280;47864;52.526;19.672;2023-04-01T01:52:33;98899.06;;;11.71;100.00
61908;BME280;47864;52.526;19.672;2023-04-01T01:54:34;98886.03;;;11.76;100.00
61908;BME280;47864;52.526;19.672;2023-04-01T01:56:36;98886.41;;;11.73;100.00
61908;BME280;47864;52.526;19.672;2023-04-01T01:59:02;98883.59;;;11.75;100.00
61908;BME280;47864;52.526;19.672;2023-04-01T02:01:07;98881.25;;;11.59;100.00
61908;BME280;47864;52.526;19.672;2023-04-01T02:03:12;98883.09;;;11.65;100.00
61908;BME280;47864;52.526;19.672;2023-04-01T02:05:17;98875.94;;;11.52;100.00
61908;BME280;47864;52.526;19.672;2023-04-01T02:07:23;98881.06;;;11.60;100.00
61908;BME280;47864;52.526;19.672;2023-04-01T02:09:27;98880.63;;;11.63;100.00
61908;BME280;47864;52.526;19.672;2023-04-01T02:12:03;98874.75;;;11.68;100.00
61908;BME280;47864;52.526;19.672;2023-04-01T02:14:09;98883.66;;;11.54;100.00
61908;BME280;47864;52.526;19.672;2023-04-01T02:16:16;98877.97;;;11.57;100.00
61908;BME280;47864;52.526;19.672;2023-04-01T02:18:20;98875.66;;;11.34;100.00
61908;BME280;47864;52.526;19.672;2023-04-01T02:20:23;98875.47;;;11.42;100.00
61908;BME280;47864;52.526;19.672;2023-04-01T02:22:39;98875.00;;;11.25;100.00
61908;BME280;47864;52.526;19.672;2023-04-01T02:24:43;98861.41;;;11.07;100.00
61908;BME280;47864;52.526;19.672;2023-04-01T02:26:45;98879.88;;;11.22;100.00
61908;BME280;47864;52.526;19.672;2023-04-01T02:28:48;98869.69;;;11.25;100.00
61908;BME280;47864;52.526;19.672;2023-04-01T02:30:51;98854.13;;;11.16;100.00
61908;BME280;47864;52.526;19.672;2023-04-01T02:32:55;98862.09;;;11.22;100.00
61908;BME280;47864;52.526;19.672;2023-04-01T02:34:57;98873.31;;;11.11;100.00
61908;BME280;47864;52.526;19.672;2023-04-01T02:36:59;98869.94;;;10.96;100.00
61908;BME280;47864;52.526;19.672;2023-04-01T02:39:01;98872.69;;;10.81;100.00
61908;BME280;47864;52.526;19.672;2023-04-01T02:41:03;98851.94;;;10.57;100.00
61908;BME280;47864;52.526;19.672;2023-04-01T02:43:05;98858.69;;;10.59;100.00
61908;BME280;47864;52.526;19.672;2023-04-01T02:45:07;98869.19;;;10.46;100.00
61908;BME280;47864;52.526;19.672;2023-04-01T02:47:08;98861.97;;;10.34;100.00
61908;BME280;47864;52.526;19.672;2023-04-01T02:49:10;98878.59;;;10.49;100.00
61908;BME280;47864;52.526;19.672;2023-04-01T02:51:12;98872.97;;;10.58;100.00
61908;BME280;47864;52.526;19.672;2023-04-01T02:53:13;98862.00;;;10.40;100.00
61908;BME280;47864;52.526;19.672;2023-04-01T02:55:15;98885.16;;;10.53;100.00
61908;BME280;47864;52.526;19.672;2023-04-01T02:57:16;98872.72;;;10.53;100.00
61908;BME280;47864;52.526;19.672;2023-04-01T02:59:18;98864.78;;;10.53;100.00
61908;BME280;47864;52.526;19.672;2023-04-01T03:01:20;98868.34;;;10.67;100.00
61908;BME280;47864;52.526;19.672;2023-04-01T03:03:22;98867.22;;;10.55;100.00
61908;BME280;47864;52.526;19.672;2023-04-01T03:05:24;98876.84;;;10.35;100.00
61908;BME280;47864;52.526;19.672;2023-04-01T03:07:25;98865.16;;;10.50;100.00
61908;BME280;47864;52.526;19.672;2023-04-01T03:09:27;98878.22;;;10.52;100.00
61908;BME280;47864;52.526;19.672;2023-04-01T03:11:28;98881.88;;;10.51;100.00
61908;BME280;47864;52.526;19.672;2023-04-01T03:13:30;98881.75;;;10.59;100.00
61908;BME280;47864;52.526;19.672;2023-04-01T03:15:31;98867.50;;;10.39;100.00
61908;BME280;47864;52.526;19.672;2023-04-01T03:17:33;98876.53;;;10.44;100.00
61908;BME280;47864;52.526;19.672;2023-04-01T03:19:34;98883.53;;;10.52;100.00
61908;BME280;47864;52.526;19.672;2023-04-01T03:21:36;98875.94;;;10.21;100.00
61908;BME280;47864;52.526;19.672;2023-04-01T03:23:37;98881.47;;;10.26;100.00
61908;BME280;47864;52.526;19.672;2023-04-01T03:25:39;98868.66;;;10.29;100.00
61908;BME280;47864;52.526;19.672;2023-04-01T03:27:40;98875.16;;;10.27;100.00
61908;BME280;47864;52.526;19.672;2023-04-01T03:29:42;98883.16;;;10.34;100.00
61908;BME280;47864;52.526;19.672;2023-04-01T03:31:43;98864.31;;;10.22;100.00
61908;BME280;47864;52.526;19.672;2023-04-01T03:33:45;98875.94;;;10.21;100.00
61908;BME280;47864;52.526;19.672;2023-04-01T03:35:46;98889.53;;;10.39;100.00
61908;BME280;47864;52.526;19.672;2023-04-01T03:37:48;98885.88;;;10.40;100.00
61908;BME280;47864;52.526;19.672;2023-04-01T03:39:49;98871.59;;;10.41;100.00
61908;BME280;47864;52.526;19.672;2023-04-01T03:41:51;98892.16;;;10.39;100.00
61908;BME280;47864;52.526;19.672;2023-04-01T03:43:53;98901.69;;;10.55;100.00
61908;BME280;47864;52.526;19.672;2023-04-01T03:45:54;98899.47;;;10.58;100.00
61908;BME280;47864;52.526;19.672;2023-04-01T03:47:56;98895.97;;;10.51;100.00
61908;BME280;47864;52.526;19.672;2023-04-01T03:49:57;98896.63;;;10.60;100.00
61908;BME280;47864;52.526;19.672;2023-04-01T03:51:59;98901.94;;;10.60;100.00
61908;BME280;47864;52.526;19.672;2023-04-01T03:54:00;98905.38;;;10.54;100.00
61908;BME280;47864;52.526;19.672;2023-04-01T03:56:06;98902.91;;;10.52;100.00
61908;BME280;47864;52.526;19.672;2023-04-01T03:58:08;98902.25;;;10.50;100.00
61908;BME280;47864;52.526;19.672;2023-04-01T04:00:10;98911.31;;;10.62;100.00
61908;BME280;47864;52.526;19.672;2023-04-01T04:02:12;98910.41;;;10.49;100.00
61908;BME280;47864;52.526;19.672;2023-04-01T04:04:13;98910.03;;;10.30;100.00
61908;BME280;47864;52.526;19.672;2023-04-01T04:06:16;98912.50;;;10.11;100.00
61908;BME280;47864;52.526;19.672;2023-04-01T04:08:18;98911.66;;;10.10;100.00
61908;BME280;47864;52.526;19.672;2023-04-01T04:10:20;98915.13;;;10.11;100.00
61908;BME280;47864;52.526;19.672;2023-04-01T04:12:21;98917.16;;;10.09;100.00
61908;BME280;47864;52.526;19.672;2023-04-01T04:14:23;98910.66;;;10.11;100.00
61908;BME280;47864;52.526;19.672;2023-04-01T04:16:25;98882.03;;;10.21;100.00
61908;BME280;47864;52.526;19.672;2023-04-01T04:18:26;98921.03;;;10.27;100.00
61908;BME280;47864;52.526;19.672;2023-04-01T04:20:28;98910.31;;;10.36;100.00
61908;BME280;47864;52.526;19.672;2023-04-01T04:22:29;98898.38;;;10.25;100.00
61908;BME280;47864;52.526;19.672;2023-04-01T04:24:31;98922.81;;;10.20;100.00
61908;BME280;47864;52.526;19.672;2023-04-01T04:26:32;98910.25;;;10.29;100.00
61908;BME280;47864;52.526;19.672;2023-04-01T04:28:34;98924.66;;;10.48;100.00
61908;BME280;47864;52.526;19.672;2023-04-01T04:30:35;98922.75;;;10.63;100.00
61908;BME280;47864;52.526;19.672;2023-04-01T04:32:37;98924.88;;;10.74;100.00
61908;BME280;47864;52.526;19.672;2023-04-01T04:34:38;98925.34;;;10.78;100.00
61908;BME280;47864;52.526;19.672;2023-04-01T04:36:42;98931.38;;;10.72;100.00
61908;BME280;47864;52.526;19.672;2023-04-01T04:38:44;98932.47;;;10.56;100.00
61908;BME280;47864;52.526;19.672;2023-04-01T04:40:45;98924.78;;;10.61;100.00
61908;BME280;47864;52.526;19.672;2023-04-01T04:42:47;98932.88;;;10.53;100.00
61908;BME280;47864;52.526;19.672;2023-04-01T04:44:48;98929.88;;;10.62;100.00
61908;BME280;47864;52.526;19.672;2023-04-01T04:46:50;98933.81;;;10.66;100.00
61908;BME280;47864;52.526;19.672;2023-04-01T04:48:51;98925.47;;;10.70;100.00
61908;BME280;47864;52.526;19.672;2023-04-01T04:50:53;98922.47;;;10.79;100.00
61908;BME280;47864;52.526;19.672;2023-04-01T04:52:54;98921.31;;;10.88;100.00
61908;BME280;47864;52.526;19.672;2023-04-01T04:54:56;98929.84;;;11.12;100.00
61908;BME280;47864;52.526;19.672;2023-04-01T04:56:57;98928.66;;;11.21;100.00
61908;BME280;47864;52.526;19.672;2023-04-01T04:58:59;98924.78;;;11.23;100.00
61908;BME280;47864;52.526;19.672;2023-04-01T05:01:09;98943.34;;;11.17;100.00
61908;BME280;47864;52.526;19.672;2023-04-01T05:03:11;98943.75;;;11.20;100.00
61908;BME280;47864;52.526;19.672;2023-04-01T05:05:13;98934.06;;;11.06;100.00
61908;BME280;47864;52.526;19.672;2023-04-01T05:07:15;98933.22;;;10.99;100.00
61908;BME280;47864;52.526;19.672;2023-04-01T05:09:16;98933.34;;;10.84;100.00
61908;BME280;47864;52.526;19.672;2023-04-01T05:11:19;98945.81;;;10.90;100.00
61908;BME280;47864;52.526;19.672;2023-04-01T05:13:20;98948.50;;;10.97;100.00
61908;BME280;47864;52.526;19.672;2023-04-01T05:15:22;98942.97;;;10.92;100.00
61908;BME280;47864;52.526;19.672;2023-04-01T05:17:24;98926.56;;;10.82;100.00
61908;BME280;47864;52.526;19.672;2023-04-01T05:19:25;98945.41;;;10.87;100.00
61908;BME280;47864;52.526;19.672;2023-04-01T05:21:27;98936.16;;;10.83;100.00
61908;BME280;47864;52.526;19.672;2023-04-01T05:23:31;98946.88;;;10.68;100.00
61908;BME280;47864;52.526;19.672;2023-04-01T05:25:32;98938.09;;;10.67;100.00
61908;BME280;47864;52.526;19.672;2023-04-01T05:27:34;98941.06;;;10.58;100.00
61908;BME280;47864;52.526;19.672;2023-04-01T05:29:36;98947.06;;;10.66;100.00
61908;BME280;47864;52.526;19.672;2023-04-01T05:31:37;98928.19;;;10.55;100.00
61908;BME280;47864;52.526;19.672;2023-04-01T05:33:39;98944.69;;;10.50;100.00
61908;BME280;47864;52.526;19.672;2023-04-01T05:35:40;98947.78;;;10.54;100.00
61908;BME280;47864;52.526;19.672;2023-04-01T05:37:42;98938.69;;;10.42;100.00
61908;BME280;47864;52.526;19.672;2023-04-01T05:39:43;98931.09;;;10.39;100.00
61908;BME280;47864;52.526;19.672;2023-04-01T05:41:45;98945.63;;;10.43;100.00
61908;BME280;47864;52.526;19.672;2023-04-01T05:43:47;98953.00;;;10.68;100.00
61908;BME280;47864;52.526;19.672;2023-04-01T05:45:48;98955.56;;;10.83;100.00
61908;BME280;47864;52.526;19.672;2023-04-01T05:47:50;98958.34;;;10.75;100.00
61908;BME280;47864;52.526;19.672;2023-04-01T05:49:52;98951.72;;;10.64;100.00
61908;BME280;47864;52.526;19.672;2023-04-01T05:51:53;98955.53;;;10.55;100.00
61908;BME280;47864;52.526;19.672;2023-04-01T05:53:55;98949.91;;;10.65;100.00
61908;BME280;47864;52.526;19.672;2023-04-01T05:55:56;98951.25;;;10.82;100.00
61908;BME280;47864;52.526;19.672;2023-04-01T05:57:58;98942.09;;;10.85;100.00
61908;BME280;47864;52.526;19.672;2023-04-01T05:59:59;98957.88;;;10.93;100.00
61908;BME280;47864;52.526;19.672;2023-04-01T06:02:01;98959.13;;;10.69;100.00
61908;BME280;47864;52.526;19.672;2023-04-01T06:04:02;98955.69;;;10.75;100.00
61908;BME280;47864;52.526;19.672;2023-04-01T06:06:08;98943.72;;;10.58;100.00
61908;BME280;47864;52.526;19.672;2023-04-01T06:08:15;98962.94;;;10.88;100.00
61908;BME280;47864;52.526;19.672;2023-04-01T06:10:21;98963.00;;;10.94;100.00
61908;BME280;47864;52.526;19.672;2023-04-01T06:23:47;98965.16;;;10.84;100.00
61908;BME280;47864;52.526;19.672;2023-04-01T06:26:24;98967.53;;;11.00;100.00
61908;BME280;47864;52.526;19.672;2023-04-01T06:28:43;98970.47;;;10.84;100.00
61908;BME280;47864;52.526;19.672;2023-04-01T06:30:47;98967.50;;;10.73;100.00
61908;BME280;47864;52.526;19.672;2023-04-01T06:35:31;98969.69;;;10.90;100.00
61908;BME280;47864;52.526;19.672;2023-04-01T06:37:47;98974.09;;;10.77;100.00
61908;BME280;47864;52.526;19.672;2023-04-01T06:40:05;98972.72;;;10.59;100.00
61908;BME280;47864;52.526;19.672;2023-04-01T06:49:31;98973.91;;;10.57;100.00
61908;BME280;47864;52.526;19.672;2023-04-01T06:51:42;98976.25;;;10.45;100.00
61908;BME280;47864;52.526;19.672;2023-04-01T06:54:21;98976.81;;;10.62;100.00
61908;BME280;47864;52.526;19.672;2023-04-01T06:56:27;98979.66;;;10.88;100.00
61908;BME280;47864;52.526;19.672;2023-04-01T06:58:34;98980.66;;;10.59;100.00
61908;BME280;47864;52.526;19.672;2023-04-01T07:00:43;98977.81;;;10.61;100.00
61908;BME280;47864;52.526;19.672;2023-04-01T07:02:50;98985.31;;;10.79;100.00
61908;BME280;47864;52.526;19.672;2023-04-01T07:04:55;98987.34;;;10.77;100.00
61908;BME280;47864;52.526;19.672;2023-04-01T07:07:01;98990.09;;;10.90;100.00
61908;BME280;47864;52.526;19.672;2023-04-01T07:09:10;98991.97;;;10.96;100.00
61908;BME280;47864;52.526;19.672;2023-04-01T07:11:25;98993.56;;;10.90;100.00
61908;BME280;47864;52.526;19.672;2023-04-01T07:15:49;98992.47;;;10.57;100.00
61908;BME280;47864;52.526;19.672;2023-04-01T07:17:56;98992.91;;;10.60;100.00
61908;BME280;47864;52.526;19.672;2023-04-01T07:20:20;98996.44;;;10.67;100.00
61908;BME280;47864;52.526;19.672;2023-04-01T07:22:27;98997.22;;;10.61;100.00
61908;BME280;47864;52.526;19.672;2023-04-01T07:24:36;98998.38;;;10.80;100.00
61908;BME280;47864;52.526;19.672;2023-04-01T07:26:38;98998.44;;;10.87;100.00
61908;BME280;47864;52.526;19.672;2023-04-01T07:28:40;99003.66;;;11.01;100.00
61908;BME280;47864;52.526;19.672;2023-04-01T07:30:56;98996.81;;;11.48;100.00
61908;BME280;47864;52.526;19.672;2023-04-01T07:35:18;98998.69;;;11.54;100.00
61908;BME280;47864;52.526;19.672;2023-04-01T07:37:36;98996.63;;;11.50;100.00
61908;BME280;47864;52.526;19.672;2023-04-01T07:42:37;98993.66;;;11.72;100.00
61908;BME280;47864;52.526;19.672;2023-04-01T07:47:25;99000.28;;;11.83;100.00
61908;BME280;47864;52.526;19.672;2023-04-01T07:52:10;99001.00;;;11.70;100.00
61908;BME280;47864;52.526;19.672;2023-04-01T07:54:22;99004.84;;;11.61;100.00
61908;BME280;47864;52.526;19.672;2023-04-01T08:05:33;98993.13;;;11.42;100.00
61908;BME280;47864;52.526;19.672;2023-04-01T08:09:58;99010.50;;;11.86;100.00
61908;BME280;47864;52.526;19.672;2023-04-01T08:12:04;99016.72;;;12.00;100.00
61908;BME280;47864;52.526;19.672;2023-04-01T08:14:21;99012.69;;;12.17;100.00
61908;BME280;47864;52.526;19.672;2023-04-01T08:16:40;99019.75;;;11.97;100.00
61908;BME280;47864;52.526;19.672;2023-04-01T08:19:13;99014.63;;;11.89;100.00
61908;BME280;47864;52.526;19.672;2023-04-01T08:21:25;99025.59;;;11.44;100.00
61908;BME280;47864;52.526;19.672;2023-04-01T08:23:33;99015.06;;;11.30;100.00
61908;BME280;47864;52.526;19.672;2023-04-01T08:25:38;99011.72;;;11.15;100.00
61908;BME280;47864;52.526;19.672;2023-04-01T08:27:46;99024.41;;;11.54;100.00
61908;BME280;47864;52.526;19.672;2023-04-01T08:29:58;99024.66;;;11.59;100.00
61908;BME280;47864;52.526;19.672;2023-04-01T08:32:11;99010.16;;;11.61;100.00
61908;BME280;47864;52.526;19.672;2023-04-01T08:34:23;99013.09;;;11.73;100.00
61908;BME280;47864;52.526;19.672;2023-04-01T08:36:31;99019.53;;;11.85;100.00
61908;BME280;47864;52.526;19.672;2023-04-01T08:38:40;99007.28;;;11.91;100.00
61908;BME280;47864;52.526;19.672;2023-04-01T08:43:45;99032.22;;;11.62;100.00
61908;BME280;47864;52.526;19.672;2023-04-01T08:48:16;99020.16;;;11.53;100.00
61908;BME280;47864;52.526;19.672;2023-04-01T08:53:00;99026.53;;;11.65;100.00
61908;BME280;47864;52.526;19.672;2023-04-01T08:55:25;99035.75;;;11.34;100.00
61908;BME280;47864;52.526;19.672;2023-04-01T08:57:40;99034.13;;;11.40;100.00
61908;BME280;47864;52.526;19.672;2023-04-01T09:00:05;99023.41;;;11.55;100.00
61908;BME280;47864;52.526;19.672;2023-04-01T09:06:56;99019.09;;;11.54;100.00
61908;BME280;47864;52.526;19.672;2023-04-01T09:09:21;99027.97;;;11.67;100.00
61908;BME280;47864;52.526;19.672;2023-04-01T09:11:44;99038.31;;;11.56;100.00
61908;BME280;47864;52.526;19.672;2023-04-01T09:28:34;99048.44;;;12.08;100.00
61908;BME280;47864;52.526;19.672;2023-04-01T09:33:27;99052.84;;;11.94;100.00
61908;BME280;47864;52.526;19.672;2023-04-01T09:35:47;99051.34;;;11.78;100.00
61908;BME280;47864;52.526;19.672;2023-04-01T09:40:13;99055.69;;;11.86;100.00
61908;BME280;47864;52.526;19.672;2023-04-01T09:42:34;99060.69;;;12.02;100.00
61908;BME280;47864;52.526;19.672;2023-04-01T09:44:50;99057.09;;;11.82;100.00
61908;BME280;47864;52.526;19.672;2023-04-01T09:49:35;99068.31;;;12.18;100.00
61908;BME280;47864;52.526;19.672;2023-04-01T09:52:05;99065.25;;;12.22;100.00
61908;BME280;47864;52.526;19.672;2023-04-01T09:56:45;99069.28;;;12.11;100.00
61908;BME280;47864;52.526;19.672;2023-04-01T10:06:34;99073.91;;;11.96;100.00
61908;BME280;47864;52.526;19.672;2023-04-01T10:11:15;99072.81;;;12.18;100.00
61908;BME280;47864;52.526;19.672;2023-04-01T10:35:44;99071.69;;;11.99;100.00
61908;BME280;47864;52.526;19.672;2023-04-01T10:40:38;99099.47;;;11.34;100.00
61908;BME280;47864;52.526;19.672;2023-04-01T10:48:12;99087.16;;;11.61;100.00
61908;BME280;47864;52.526;19.672;2023-04-01T10:50:30;99101.13;;;11.70;100.00
61908;BME280;47864;52.526;19.672;2023-04-01T10:57:25;99086.78;;;11.64;100.00
61908;BME280;47864;52.526;19.672;2023-04-01T11:00:05;99100.34;;;12.04;100.00
61908;BME280;47864;52.526;19.672;2023-04-01T11:21:59;99123.38;;;13.12;100.00
61908;BME280;47864;52.526;19.672;2023-04-01T11:26:32;99123.75;;;12.82;100.00
61908;BME280;47864;52.526;19.672;2023-04-01T11:31:16;99131.56;;;12.36;100.00
61908;BME280;47864;52.526;19.672;2023-04-01T11:45:11;99138.81;;;11.31;100.00
61908;BME280;47864;52.526;19.672;2023-04-01T11:47:48;99127.78;;;11.27;100.00
61908;BME280;47864;52.526;19.672;2023-04-01T11:50:18;99151.47;;;11.50;100.00
61908;BME280;47864;52.526;19.672;2023-04-01T11:59:46;99160.44;;;11.49;100.00
61908;BME280;47864;52.526;19.672;2023-04-01T12:07:21;99180.28;;;11.53;100.00
61908;BME280;47864;52.526;19.672;2023-04-01T12:09:35;99179.16;;;11.41;100.00
61908;BME280;47864;52.526;19.672;2023-04-01T12:13:48;99187.22;;;11.54;100.00
61908;BME280;47864;52.526;19.672;2023-04-01T12:15:55;99187.00;;;11.49;100.00
61908;BME280;47864;52.526;19.672;2023-04-01T12:18:10;99183.75;;;11.54;100.00
61908;BME280;47864;52.526;19.672;2023-04-01T12:20:23;99194.53;;;11.73;100.00
61908;BME280;47864;52.526;19.672;2023-04-01T12:22:34;99194.31;;;11.68;100.00
61908;BME280;47864;52.526;19.672;2023-04-01T12:24:51;99186.22;;;11.76;100.00
61908;BME280;47864;52.526;19.672;2023-04-01T12:27:20;99199.91;;;11.52;100.00
61908;BME280;47864;52.526;19.672;2023-04-01T12:29:37;99201.03;;;11.22;100.00
61908;BME280;47864;52.526;19.672;2023-04-01T12:34:49;99200.22;;;11.70;100.00
61908;BME280;47864;52.526;19.672;2023-04-01T12:41:24;99213.78;;;11.54;100.00
61908;BME280;47864;52.526;19.672;2023-04-01T12:43:34;99217.53;;;11.81;100.00
61908;BME280;47864;52.526;19.672;2023-04-01T12:50:58;99220.97;;;10.96;100.00
61908;BME280;47864;52.526;19.672;2023-04-01T12:55:32;99230.72;;;11.11;100.00
61908;BME280;47864;52.526;19.672;2023-04-01T13:00:11;99242.69;;;11.42;100.00
61908;BME280;47864;52.526;19.672;2023-04-01T13:02:29;99243.50;;;11.22;100.00
61908;BME280;47864;52.526;19.672;2023-04-01T13:04:35;99248.03;;;11.06;100.00
61908;BME280;47864;52.526;19.672;2023-04-01T13:07:08;99241.66;;;11.22;100.00
61908;BME280;47864;52.526;19.672;2023-04-01T13:12:04;99256.56;;;10.87;100.00
61908;BME280;47864;52.526;19.672;2023-04-01T13:16:39;99267.47;;;10.34;100.00
61908;BME280;47864;52.526;19.672;2023-04-01T13:18:50;99272.59;;;10.20;100.00
61908;BME280;47864;52.526;19.672;2023-04-01T13:25:36;99267.53;;;10.11;100.00
61908;BME280;47864;52.526;19.672;2023-04-01T13:27:43;99285.72;;;9.91;100.00
61908;BME280;47864;52.526;19.672;2023-04-01T13:36:26;99291.50;;;10.17;100.00
61908;BME280;47864;52.526;19.672;2023-04-01T13:38:53;99291.50;;;10.17;100.00
61908;BME280;47864;52.526;19.672;2023-04-01T13:43:23;99301.81;;;9.89;100.00
61908;BME280;47864;52.526;19.672;2023-04-01T13:51:04;99304.22;;;9.76;100.00
61908;BME280;47864;52.526;19.672;2023-04-01T13:53:25;99310.31;;;9.62;100.00
61908;BME280;47864;52.526;19.672;2023-04-01T14:00:36;99323.75;;;9.52;100.00
61908;BME280;47864;52.526;19.672;2023-04-01T14:05:19;99315.56;;;9.39;100.00
61908;BME280;47864;52.526;19.672;2023-04-01T14:10:05;99335.56;;;9.42;100.00
61908;BME280;47864;52.526;19.672;2023-04-01T14:12:42;99344.16;;;9.44;100.00
61908;BME280;47864;52.526;19.672;2023-04-01T14:17:19;99349.19;;;9.31;100.00
61908;BME280;47864;52.526;19.672;2023-04-01T14:22:00;99354.72;;;9.21;100.00
61908;BME280;47864;52.526;19.672;2023-04-01T14:24:18;99357.28;;;9.37;100.00
61908;BME280;47864;52.526;19.672;2023-04-01T14:26:50;99368.13;;;9.11;100.00
61908;BME280;47864;52.526;19.672;2023-04-01T14:43:14;99389.75;;;9.23;100.00
61908;BME280;47864;52.526;19.672;2023-04-01T14:50:06;99395.09;;;9.07;100.00
61908;BME280;47864;52.526;19.672;2023-04-01T14:52:17;99412.63;;;9.08;100.00
61908;BME280;47864;52.526;19.672;2023-04-01T14:54:32;99399.66;;;9.29;100.00
61908;BME280;47864;52.526;19.672;2023-04-01T14:56:39;99403.50;;;9.19;100.00
61908;BME280;47864;52.526;19.672;2023-04-01T15:01:10;99415.50;;;9.37;100.00
61908;BME280;47864;52.526;19.672;2023-04-01T15:03:29;99404.88;;;8.98;100.00
61908;BME280;47864;52.526;19.672;2023-04-01T15:05:43;99386.88;;;8.94;100.00
61908;BME280;47864;52.526;19.672;2023-04-01T15:07:59;99421.22;;;9.10;100.00
61908;BME280;47864;52.526;19.672;2023-04-01T15:10:19;99425.41;;;8.96;100.00
61908;BME280;47864;52.526;19.672;2023-04-01T15:12:31;99426.19;;;9.05;100.00
61908;BME280;47864;52.526;19.672;2023-04-01T15:19:16;99435.44;;;9.09;100.00
61908;BME280;47864;52.526;19.672;2023-04-01T15:24:03;99436.47;;;8.92;100.00
61908;BME280;47864;52.526;19.672;2023-04-01T15:26:16;99447.97;;;9.15;100.00
61908;BME280;47864;52.526;19.672;2023-04-01T15:33:16;99456.91;;;9.06;100.00
61908;BME280;47864;52.526;19.672;2023-04-01T15:37:37;99467.00;;;9.10;100.00
61908;BME280;47864;52.526;19.672;2023-04-01T15:42:38;99472.19;;;8.88;100.00
61908;BME280;47864;52.526;19.672;2023-04-01T15:47:09;99471.22;;;8.72;100.00